sensor_id;sensor_type;location;lat;lon;timestamp;P1;durP1;ratioP1;P2;durP2;ratioP2
73170;SDS011;61381;50.118;19.962;2022-09-27T00:03:46;114.28;;;28.30;;
73170;SDS011;61381;50.118;19.962;2022-09-27T00:08:48;109.72;;;28.13;;
73170;SDS011;61381;50.118;19.962;2022-09-27T00:13:49;84.70;;;21.77;;
73170;SDS011;61381;50.118;19.962;2022-09-27T00:18:50;89.95;;;24.73;;
73170;SDS011;61381;50.118;19.962;2022-09-27T00:23:52;100.18;;;20.25;;
73170;SDS011;61381;50.118;19.962;2022-09-27T00:28:53;105.78;;;22.15;;
73170;SDS011;61381;50.118;19.962;2022-09-27T00:33:55;57.17;;;18.60;;
73170;SDS011;61381;50.118;19.962;2022-09-27T00:38:59;88.20;;;20.10;;
73170;SDS011;61381;50.118;19.962;2022-09-27T00:44:01;84.82;;;20.83;;
73170;SDS011;61381;50.118;19.962;2022-09-27T00:49:05;50.92;;;18.50;;
73170;SDS011;61381;50.118;19.962;2022-09-27T00:54:14;72.82;;;18.63;;
73170;SDS011;61381;50.118;19.962;2022-09-27T01:04:23;35.83;;;14.32;;
73170;SDS011;61381;50.118;19.962;2022-09-27T01:09:28;42.80;;;13.90;;
73170;SDS011;61381;50.118;19.962;2022-09-27T01:14:38;34.45;;;13.65;;
73170;SDS011;61381;50.118;19.962;2022-09-27T01:19:51;53.78;;;15.05;;
73170;SDS011;61381;50.118;19.962;2022-09-27T01:25:13;74.43;;;16.25;;
73170;SDS011;61381;50.118;19.962;2022-09-27T01:30:32;89.38;;;16.58;;
73170;SDS011;61381;50.118;19.962;2022-09-27T01:35:44;48.67;;;15.18;;
73170;SDS011;61381;50.118;19.962;2022-09-27T01:40:56;39.70;;;14.93;;
73170;SDS011;61381;50.118;19.962;2022-09-27T01:46:06;46.65;;;14.02;;
73170;SDS011;61381;50.118;19.962;2022-09-27T01:51:11;128.30;;;19.33;;
73170;SDS011;61381;50.118;19.962;2022-09-27T01:56:17;126.30;;;20.58;;
73170;SDS011;61381;50.118;19.962;2022-09-27T02:01:25;92.30;;;19.60;;
73170;SDS011;61381;50.118;19.962;2022-09-27T02:06:29;58.55;;;15.90;;
73170;SDS011;61381;50.118;19.962;2022-09-27T02:11:35;69.88;;;15.43;;
73170;SDS011;61381;50.118;19.962;2022-09-27T02:16:44;91.57;;;17.05;;
73170;SDS011;61381;50.118;19.962;2022-09-27T02:21:51;39.65;;;12.02;;
73170;SDS011;61381;50.118;19.962;2022-09-27T02:27:00;46.20;;;13.45;;
73170;SDS011;61381;50.118;19.962;2022-09-27T02:32:10;63.25;;;13.68;;
73170;SDS011;61381;50.118;19.962;2022-09-27T02:37:11;24.33;;;11.45;;
73170;SDS011;61381;50.118;19.962;2022-09-27T02:42:12;36.20;;;12.75;;
73170;SDS011;61381;50.118;19.962;2022-09-27T02:47:27;36.65;;;12.55;;
73170;SDS011;61381;50.118;19.962;2022-09-27T03:02:52;110.60;;;24.98;;
73170;SDS011;61381;50.118;19.962;2022-09-27T03:07:58;72.05;;;18.83;;
73170;SDS011;61381;50.118;19.962;2022-09-27T03:12:59;50.75;;;15.52;;
73170;SDS011;61381;50.118;19.962;2022-09-27T03:18:02;73.80;;;19.08;;
73170;SDS011;61381;50.118;19.962;2022-09-27T03:23:04;63.85;;;18.77;;
73170;SDS011;61381;50.118;19.962;2022-09-27T03:28:05;58.40;;;15.57;;
73170;SDS011;61381;50.118;19.962;2022-09-27T03:33:07;54.40;;;14.98;;
73170;SDS011;61381;50.118;19.962;2022-09-27T03:38:08;45.05;;;13.98;;
73170;SDS011;61381;50.118;19.962;2022-09-27T03:43:10;51.38;;;13.65;;
73170;SDS011;61381;50.118;19.962;2022-09-27T03:48:12;54.20;;;15.68;;
73170;SDS011;61381;50.118;19.962;2022-09-27T03:53:13;56.40;;;14.95;;
73170;SDS011;61381;50.118;19.962;2022-09-27T03:58:14;34.30;;;12.60;;
73170;SDS011;61381;50.118;19.962;2022-09-27T04:03:16;29.20;;;10.52;;
73170;SDS011;61381;50.118;19.962;2022-09-27T04:08:17;30.30;;;12.02;;
73170;SDS011;61381;50.118;19.962;2022-09-27T04:13:18;32.10;;;12.05;;
73170;SDS011;61381;50.118;19.962;2022-09-27T04:18:20;31.88;;;10.18;;
73170;SDS011;61381;50.118;19.962;2022-09-27T04:23:21;24.02;;;9.90;;
73170;SDS011;61381;50.118;19.962;2022-09-27T04:28:22;43.25;;;11.02;;
73170;SDS011;61381;50.118;19.962;2022-09-27T04:33:25;64.15;;;16.92;;
73170;SDS011;61381;50.118;19.962;2022-09-27T04:38:26;58.25;;;15.07;;
73170;SDS011;61381;50.118;19.962;2022-09-27T04:43:26;33.50;;;12.60;;
73170;SDS011;61381;50.118;19.962;2022-09-27T04:48:29;42.17;;;12.32;;
73170;SDS011;61381;50.118;19.962;2022-09-27T04:53:30;53.70;;;12.80;;
73170;SDS011;61381;50.118;19.962;2022-09-27T04:58:31;51.85;;;14.00;;
73170;SDS011;61381;50.118;19.962;2022-09-27T05:03:34;45.50;;;14.23;;
73170;SDS011;61381;50.118;19.962;2022-09-27T05:08:35;57.28;;;14.40;;
73170;SDS011;61381;50.118;19.962;2022-09-27T05:13:36;56.40;;;15.98;;
73170;SDS011;61381;50.118;19.962;2022-09-27T05:18:38;55.83;;;18.80;;
73170;SDS011;61381;50.118;19.962;2022-09-27T05:23:39;32.22;;;14.80;;
73170;SDS011;61381;50.118;19.962;2022-09-27T05:28:40;39.63;;;14.68;;
73170;SDS011;61381;50.118;19.962;2022-09-27T05:33:42;35.25;;;14.63;;
73170;SDS011;61381;50.118;19.962;2022-09-27T05:38:43;40.67;;;17.67;;
73170;SDS011;61381;50.118;19.962;2022-09-27T05:43:44;36.00;;;14.68;;
73170;SDS011;61381;50.118;19.962;2022-09-27T05:48:46;36.42;;;16.58;;
73170;SDS011;61381;50.118;19.962;2022-09-27T05:53:47;34.25;;;16.45;;
73170;SDS011;61381;50.118;19.962;2022-09-27T05:58:48;30.98;;;16.17;;
73170;SDS011;61381;50.118;19.962;2022-09-27T06:03:50;30.15;;;15.35;;
73170;SDS011;61381;50.118;19.962;2022-09-27T06:08:51;25.95;;;14.07;;
73170;SDS011;61381;50.118;19.962;2022-09-27T06:13:52;25.98;;;14.10;;
73170;SDS011;61381;50.118;19.962;2022-09-27T06:18:55;26.85;;;14.48;;
73170;SDS011;61381;50.118;19.962;2022-09-27T06:23:56;25.75;;;13.77;;
73170;SDS011;61381;50.118;19.962;2022-09-27T06:28:57;18.73;;;11.13;;
73170;SDS011;61381;50.118;19.962;2022-09-27T06:33:59;21.77;;;11.70;;
73170;SDS011;61381;50.118;19.962;2022-09-27T06:39:00;21.02;;;12.43;;
73170;SDS011;61381;50.118;19.962;2022-09-27T06:44:01;20.35;;;12.68;;
73170;SDS011;61381;50.118;19.962;2022-09-27T06:49:04;22.25;;;12.73;;
73170;SDS011;61381;50.118;19.962;2022-09-27T06:54:05;24.42;;;13.73;;
73170;SDS011;61381;50.118;19.962;2022-09-27T06:59:05;30.20;;;16.35;;
73170;SDS011;61381;50.118;19.962;2022-09-27T07:04:08;29.55;;;15.82;;
73170;SDS011;61381;50.118;19.962;2022-09-27T07:09:10;32.78;;;17.80;;
73170;SDS011;61381;50.118;19.962;2022-09-27T07:14:11;36.80;;;20.02;;
73170;SDS011;61381;50.118;19.962;2022-09-27T07:19:13;28.70;;;17.23;;
73170;SDS011;61381;50.118;19.962;2022-09-27T14:26:23;4.95;;;2.25;;
73170;SDS011;61381;50.118;19.962;2022-09-27T14:31:27;4.93;;;2.90;;
73170;SDS011;61381;50.118;19.962;2022-09-27T14:36:28;9.48;;;3.30;;
73170;SDS011;61381;50.118;19.962;2022-09-27T14:41:35;3.55;;;3.15;;
73170;SDS011;61381;50.118;19.962;2022-09-27T14:46:37;4.35;;;2.45;;
73170;SDS011;61381;50.118;19.962;2022-09-27T14:51:38;4.20;;;2.88;;
73170;SDS011;61381;50.118;19.962;2022-09-27T14:56:40;5.07;;;2.50;;
73170;SDS011;61381;50.118;19.962;2022-09-27T15:01:46;4.75;;;3.00;;
73170;SDS011;61381;50.118;19.962;2022-09-27T15:06:48;5.28;;;2.92;;
73170;SDS011;61381;50.118;19.962;2022-09-27T15:11:52;4.00;;;2.85;;
73170;SDS011;61381;50.118;19.962;2022-09-27T15:16:55;5.85;;;2.83;;
73170;SDS011;61381;50.118;19.962;2022-09-27T15:21:58;4.88;;;3.10;;
73170;SDS011;61381;50.118;19.962;2022-09-27T15:27:31;7.97;;;3.88;;
73170;SDS011;61381;50.118;19.962;2022-09-27T15:32:32;3.97;;;2.33;;
73170;SDS011;61381;50.118;19.962;2022-09-27T15:37:33;5.00;;;2.60;;
73170;SDS011;61381;50.118;19.962;2022-09-27T15:48:04;3.10;;;1.98;;
73170;SDS011;61381;50.118;19.962;2022-09-27T15:53:10;4.05;;;2.42;;
73170;SDS011;61381;50.118;19.962;2022-09-27T15:58:13;4.20;;;2.58;;
73170;SDS011;61381;50.118;19.962;2022-09-27T16:03:15;3.63;;;2.67;;
73170;SDS011;61381;50.118;19.962;2022-09-27T16:08:16;2.13;;;1.48;;
73170;SDS011;61381;50.118;19.962;2022-09-27T16:13:18;3.03;;;1.50;;
73170;SDS011;61381;50.118;19.962;2022-09-27T16:18:19;2.17;;;1.75;;
73170;SDS011;61381;50.118;19.962;2022-09-27T16:23:20;2.55;;;1.80;;
73170;SDS011;61381;50.118;19.962;2022-09-27T16:28:22;1.98;;;1.50;;
73170;SDS011;61381;50.118;19.962;2022-09-27T16:33:23;2.47;;;1.42;;
73170;SDS011;61381;50.118;19.962;2022-09-27T16:38:24;4.00;;;2.30;;
73170;SDS011;61381;50.118;19.962;2022-09-27T16:43:26;3.60;;;2.15;;
73170;SDS011;61381;50.118;19.962;2022-09-27T16:48:28;4.95;;;2.90;;
73170;SDS011;61381;50.118;19.962;2022-09-27T16:53:28;4.35;;;2.13;;
73170;SDS011;61381;50.118;19.962;2022-09-27T16:58:31;5.05;;;3.20;;
73170;SDS011;61381;50.118;19.962;2022-09-27T17:03:32;3.75;;;3.17;;
73170;SDS011;61381;50.118;19.962;2022-09-27T17:08:32;6.35;;;3.67;;
73170;SDS011;61381;50.118;19.962;2022-09-27T17:13:35;6.05;;;3.45;;
73170;SDS011;61381;50.118;19.962;2022-09-27T17:18:36;6.00;;;3.25;;
73170;SDS011;61381;50.118;19.962;2022-09-27T17:23:37;5.72;;;3.10;;
73170;SDS011;61381;50.118;19.962;2022-09-27T17:28:39;6.57;;;3.70;;
73170;SDS011;61381;50.118;19.962;2022-09-27T17:33:41;5.53;;;3.58;;
73170;SDS011;61381;50.118;19.962;2022-09-27T17:38:43;7.07;;;4.00;;
73170;SDS011;61381;50.118;19.962;2022-09-27T17:43:45;8.07;;;4.45;;
73170;SDS011;61381;50.118;19.962;2022-09-27T17:48:46;8.95;;;5.47;;
73170;SDS011;61381;50.118;19.962;2022-09-27T17:53:48;9.13;;;5.25;;
73170;SDS011;61381;50.118;19.962;2022-09-27T17:58:52;10.73;;;6.47;;
73170;SDS011;61381;50.118;19.962;2022-09-27T18:03:55;10.13;;;5.78;;
73170;SDS011;61381;50.118;19.962;2022-09-27T18:08:58;13.98;;;7.43;;
73170;SDS011;61381;50.118;19.962;2022-09-27T18:14:01;11.82;;;7.45;;
73170;SDS011;61381;50.118;19.962;2022-09-27T18:19:02;13.20;;;8.02;;
73170;SDS011;61381;50.118;19.962;2022-09-27T18:24:04;16.90;;;8.95;;
73170;SDS011;61381;50.118;19.962;2022-09-27T18:29:08;15.05;;;8.18;;
73170;SDS011;61381;50.118;19.962;2022-09-27T18:34:12;15.60;;;8.55;;
73170;SDS011;61381;50.118;19.962;2022-09-27T18:39:13;16.73;;;9.73;;
73170;SDS011;61381;50.118;19.962;2022-09-27T18:44:17;17.10;;;10.32;;
73170;SDS011;61381;50.118;19.962;2022-09-27T18:49:18;19.92;;;10.10;;
73170;SDS011;61381;50.118;19.962;2022-09-27T18:54:20;22.77;;;11.85;;
73170;SDS011;61381;50.118;19.962;2022-09-27T18:59:23;21.65;;;11.30;;
73170;SDS011;61381;50.118;19.962;2022-09-27T19:04:24;21.30;;;10.25;;
73170;SDS011;61381;50.118;19.962;2022-09-27T19:09:26;14.50;;;8.73;;
73170;SDS011;61381;50.118;19.962;2022-09-27T19:14:28;17.42;;;8.40;;
73170;SDS011;61381;50.118;19.962;2022-09-27T19:19:29;18.92;;;11.48;;
73170;SDS011;61381;50.118;19.962;2022-09-27T19:24:29;20.50;;;11.02;;
73170;SDS011;61381;50.118;19.962;2022-09-27T19:29:33;17.92;;;10.30;;
73170;SDS011;61381;50.118;19.962;2022-09-27T19:34:34;19.20;;;10.35;;
73170;SDS011;61381;50.118;19.962;2022-09-27T19:39:35;21.30;;;11.73;;
73170;SDS011;61381;50.118;19.962;2022-09-27T19:44:37;21.85;;;11.35;;
73170;SDS011;61381;50.118;19.962;2022-09-27T19:49:39;22.40;;;11.82;;
73170;SDS011;61381;50.118;19.962;2022-09-27T19:54:40;18.20;;;10.80;;
73170;SDS011;61381;50.118;19.962;2022-09-27T19:59:43;22.15;;;11.77;;
73170;SDS011;61381;50.118;19.962;2022-09-27T20:04:44;21.15;;;11.45;;
73170;SDS011;61381;50.118;19.962;2022-09-27T20:09:45;24.17;;;11.32;;
73170;SDS011;61381;50.118;19.962;2022-09-27T20:14:48;23.98;;;11.73;;
73170;SDS011;61381;50.118;19.962;2022-09-27T20:19:49;29.98;;;14.65;;
73170;SDS011;61381;50.118;19.962;2022-09-27T20:24:49;36.88;;;16.33;;
73170;SDS011;61381;50.118;19.962;2022-09-27T20:29:52;28.17;;;14.27;;
73170;SDS011;61381;50.118;19.962;2022-09-27T20:34:52;29.95;;;14.63;;
73170;SDS011;61381;50.118;19.962;2022-09-27T20:39:53;36.90;;;17.67;;
73170;SDS011;61381;50.118;19.962;2022-09-27T20:44:55;38.17;;;18.45;;
73170;SDS011;61381;50.118;19.962;2022-09-27T20:49:56;32.08;;;14.68;;
73170;SDS011;61381;50.118;19.962;2022-09-27T20:54:57;28.00;;;13.45;;
73170;SDS011;61381;50.118;19.962;2022-09-27T20:59:59;28.92;;;12.73;;
73170;SDS011;61381;50.118;19.962;2022-09-27T21:05:00;28.83;;;12.43;;
73170;SDS011;61381;50.118;19.962;2022-09-27T21:10:01;34.72;;;13.43;;
73170;SDS011;61381;50.118;19.962;2022-09-27T21:15:04;28.92;;;12.60;;
73170;SDS011;61381;50.118;19.962;2022-09-27T21:20:06;26.02;;;13.55;;
73170;SDS011;61381;50.118;19.962;2022-09-27T21:25:08;28.88;;;13.25;;
73170;SDS011;61381;50.118;19.962;2022-09-27T21:30:11;29.55;;;12.45;;
73170;SDS011;61381;50.118;19.962;2022-09-27T21:35:12;29.88;;;14.70;;
73170;SDS011;61381;50.118;19.962;2022-09-27T21:40:13;32.80;;;13.98;;
73170;SDS011;61381;50.118;19.962;2022-09-27T21:45:16;26.90;;;13.85;;
73170;SDS011;61381;50.118;19.962;2022-09-27T21:50:16;31.50;;;13.60;;
73170;SDS011;61381;50.118;19.962;2022-09-27T21:55:17;26.35;;;13.02;;
73170;SDS011;61381;50.118;19.962;2022-09-27T22:00:20;27.13;;;13.43;;
73170;SDS011;61381;50.118;19.962;2022-09-27T22:05:20;26.77;;;14.90;;
73170;SDS011;61381;50.118;19.962;2022-09-27T22:10:21;29.60;;;13.95;;
73170;SDS011;61381;50.118;19.962;2022-09-27T22:15:23;29.15;;;14.30;;
73170;SDS011;61381;50.118;19.962;2022-09-27T22:20:24;32.78;;;14.63;;
73170;SDS011;61381;50.118;19.962;2022-09-27T22:25:26;34.85;;;14.93;;
73170;SDS011;61381;50.118;19.962;2022-09-27T22:30:29;34.92;;;15.00;;
73170;SDS011;61381;50.118;19.962;2022-09-27T22:35:30;34.60;;;15.40;;
73170;SDS011;61381;50.118;19.962;2022-09-27T22:40:31;31.77;;;14.30;;
73170;SDS011;61381;50.118;19.962;2022-09-27T22:45:33;43.38;;;17.25;;
73170;SDS011;61381;50.118;19.962;2022-09-27T22:50:34;38.60;;;18.40;;
73170;SDS011;61381;50.118;19.962;2022-09-27T22:55:35;34.83;;;17.20;;
73170;SDS011;61381;50.118;19.962;2022-09-27T23:00:38;43.72;;;17.60;;
73170;SDS011;61381;50.118;19.962;2022-09-27T23:05:38;37.88;;;18.02;;
73170;SDS011;61381;50.118;19.962;2022-09-27T23:10:39;37.65;;;16.38;;
73170;SDS011;61381;50.118;19.962;2022-09-27T23:15:41;37.50;;;17.67;;
73170;SDS011;61381;50.118;19.962;2022-09-27T23:20:42;35.42;;;17.20;;
73170;SDS011;61381;50.118;19.962;2022-09-27T23:25:43;36.33;;;16.20;;
73170;SDS011;61381;50.118;19.962;2022-09-27T23:30:45;37.80;;;16.17;;
73170;SDS011;61381;50.118;19.962;2022-09-27T23:35:46;34.90;;;17.92;;
73170;SDS011;61381;50.118;19.962;2022-09-27T23:40:47;35.90;;;18.17;;
73170;SDS011;61381;50.118;19.962;2022-09-27T23:45:49;37.13;;;18.15;;
73170;SDS011;61381;50.118;19.962;2022-09-27T23:50:50;39.38;;;18.67;;
73170;SDS011;61381;50.118;19.962;2022-09-27T23:55:58;38.13;;;17.08;;
